Camp Douglas, WI (54637)

14:27 CST le 06 février 2016 (GMT -0600)
In Town | | Change Station
CLOSE
Current Station
Stations météorologiques personnelles
Location: New Lisbon, WI
Altitude: 909 ft
Stations météo à proximité

Alt. 909 ft 43.88 °N, 90.17 °W | Updated 13 minutes ago

Mostly Cloudy
Nuageux
38.1 ° F
Paraît 36 ° F
N
3.2
Vent Variable Vent de OSO

Aujourd'hui
Haut(e) -- | Bas -- ° F
--% Risque de précip.
Hier
Haut(e) -- | Bas -- ° F
Precip. -- pouce
Pression 30.12 pouce
Visibilité 10.0 Miles terrestres
Nuages Peu 12000 ft
Nuageux 20000 ft
Refroidissement éolien 36 ° F
Point de rosée 26 ° F
Humidité 62%
Précipitations 0.00 pouce
Profondeur de la couche neigeuse Non disponible.
7:12 AM 5:17 PM
Lune descendante, 4% visible
METAR KVOK 061958Z 24010KT 10SM FEW120 BKN200 02/M02 A3008 RMK AO2A SLP200
Pression 30.12 pouce
Visibilité 10.0 Miles terrestres
Nuages Peu 12000 ft
Nuageux 20000 ft
Refroidissement éolien 36 ° F
Point de rosée 26 ° F
Humidité 62%
Précipitations 0.00 pouce
Profondeur de la couche neigeuse Non disponible.
7:12 AM 5:17 PM
Lune descendante, 4% visible
METAR KVOK 061958Z 24010KT 10SM FEW120 BKN200 02/M02 A3008 RMK AO2A SLP200

10-Day Weather Forecast

Almanac

Astronomie

Feb. 06, 2016 Lever Coucher
Temps réel
Crépuscule civil
Crépuscule nautique
Crépuscule astronomique
Lune
Durée de lumière visible
Longueur du jour
Tomorrow will be .
, % of the Moon is Illuminated

Extrêmes aujourd'hui

State Highs State Lows

Community

WunderPhotos

Upload Photos

1,891,045 Photos téléchargées !

WunderBlog® & News

Nearby

Qualité de l'air

  Qualité de l'air Indice de la qualité de l'air Polluant
Not available.

Épaisseur de neige

Station Depth Altitude

Activité sismique

Ville Distance Mag. Time & Date
Minimum magnitude displayed is 2.5.

Températures des eaux côtières

Lieu Température

Stations

Stations météo à proximité

Emplacement de la station Température Refroidissement éolien Point de rosée Humidité Vent Precip. Alt. Mise à jour Type
                   

Watches & Warnings

There are currently no watches in effect.